createdAt,value
2022-09-21T00:00:32.425Z,58.30
2022-09-21T00:05:26.062Z,58.42
2022-09-21T00:10:20.258Z,58.48
2022-09-21T00:15:14.606Z,58.75
2022-09-21T00:20:09.886Z,59.42
2022-09-21T00:25:03.801Z,59.61
2022-09-21T00:29:57.082Z,59.98
2022-09-21T00:34:50.290Z,60.53
2022-09-21T00:39:44.774Z,61.21
2022-09-21T00:44:38.173Z,62.04
2022-09-21T00:49:34.386Z,62.65
2022-09-21T00:54:32.667Z,63.22
2022-09-21T00:59:30.253Z,63.98
2022-09-21T01:04:24.308Z,64.83
2022-09-21T01:09:19.361Z,65.44
2022-09-21T01:14:26.753Z,66.12
2022-09-21T01:19:41.659Z,66.98
2022-09-21T01:24:51.048Z,67.41
2022-09-21T01:29:51.331Z,67.18
2022-09-21T01:34:50.741Z,66.99
2022-09-21T01:39:47.187Z,66.61
2022-09-21T01:44:42.359Z,67.34
2022-09-21T01:49:40.538Z,67.38
2022-09-21T01:54:38.984Z,67.63
2022-09-21T01:59:39.331Z,67.44
2022-09-21T02:04:32.449Z,66.70
2022-09-21T02:09:27.010Z,67.09
2022-09-21T02:14:24.081Z,66.61
2022-09-21T02:19:23.839Z,66.69
2022-09-21T02:24:25.479Z,66.54
2022-09-21T02:29:26.993Z,66.67
2022-09-21T02:34:25.871Z,66.29
2022-09-21T02:39:23.042Z,66.59
2022-09-21T02:44:23.683Z,67.23
2022-09-21T02:49:21.026Z,68.01
2022-09-21T02:54:18.504Z,68.12
2022-09-21T02:59:12.061Z,68.86
2022-09-21T03:04:06.680Z,69.14
2022-09-21T03:08:59.823Z,68.85
2022-09-21T03:13:53.202Z,69.65
2022-09-21T03:18:46.303Z,69.88
2022-09-21T03:23:41.213Z,71.12
2022-09-21T03:28:34.392Z,71.90
2022-09-21T03:33:27.580Z,72.31
2022-09-21T03:38:24.318Z,72.34
2022-09-21T03:43:19.402Z,72.86
2022-09-21T03:48:13.692Z,73.15
2022-09-21T03:53:06.913Z,73.75
2022-09-21T03:58:00.659Z,74.44
2022-09-21T04:02:55.765Z,74.21
2022-09-21T04:07:49.828Z,74.61
2022-09-21T04:12:44.131Z,74.70
2022-09-21T04:17:37.309Z,74.74
2022-09-21T04:22:31.863Z,73.40
2022-09-21T04:27:25.262Z,72.82
2022-09-21T04:32:18.449Z,73.43
2022-09-21T04:37:12.019Z,73.60
2022-09-21T04:42:09.404Z,72.26
2022-09-21T04:47:02.639Z,72.00
2022-09-21T04:51:55.880Z,72.73
2022-09-21T04:56:48.985Z,72.44
2022-09-21T05:01:43.585Z,72.80
2022-09-21T05:06:36.733Z,72.48
2022-09-21T05:11:29.979Z,72.25
2022-09-21T05:16:23.183Z,71.09
2022-09-21T05:21:17.706Z,70.70
2022-09-21T05:26:10.925Z,71.64
2022-09-21T05:31:18.046Z,69.84
2022-09-21T05:36:29.959Z,69.87
2022-09-21T05:41:23.703Z,69.18
2022-09-21T05:46:21.780Z,68.76
2022-09-21T05:51:30.982Z,68.48
2022-09-21T05:56:35.299Z,67.82
2022-09-21T06:01:42.057Z,68.10
2022-09-21T06:06:36.590Z,68.54
2022-09-21T06:11:29.725Z,68.22
2022-09-21T06:16:22.904Z,68.50
2022-09-21T06:21:16.221Z,67.79
2022-09-21T06:26:10.799Z,67.55
2022-09-21T06:31:04.083Z,67.74
2022-09-21T06:35:59.195Z,67.28
2022-09-21T06:40:53.025Z,66.93
2022-09-21T06:45:54.458Z,65.89
2022-09-21T06:50:47.896Z,66.22
2022-09-21T06:55:41.086Z,65.99
2022-09-21T07:00:34.444Z,65.93
2022-09-21T07:05:29.092Z,65.08
2022-09-21T07:10:22.604Z,64.61
2022-09-21T07:15:15.890Z,64.46
2022-09-21T07:20:09.862Z,64.35
2022-09-21T07:25:05.685Z,64.78
2022-09-21T07:29:58.907Z,65.04
2022-09-21T07:34:56.566Z,64.19
2022-09-21T07:39:49.861Z,63.23
2022-09-21T07:45:03.358Z,63.36
2022-09-21T07:50:06.896Z,62.01
2022-09-21T07:55:00.127Z,61.30
2022-09-21T07:59:56.704Z,60.34
2022-09-21T08:04:49.921Z,60.08
2022-09-21T08:09:43.331Z,59.15
2022-09-21T08:15:06.476Z,57.52
2022-09-21T08:20:00.302Z,56.66
2022-09-21T08:24:57.197Z,55.58
2022-09-21T08:29:50.611Z,56.67
2022-09-21T08:34:45.285Z,54.39
2022-09-21T08:39:39.106Z,51.94
2022-09-21T08:44:38.501Z,48.51
2022-09-21T08:50:05.999Z,45.80
2022-09-21T08:55:08.807Z,44.84
2022-09-21T09:00:03.346Z,43.87
2022-09-21T09:05:07.860Z,40.75
2022-09-21T09:10:17.434Z,40.38
2022-09-21T09:15:41.297Z,40.23
2022-09-21T09:20:39.263Z,40.83
2022-09-21T09:25:39.286Z,40.50
2022-09-21T09:30:36.310Z,39.95
2022-09-21T09:35:40.241Z,41.21
2022-09-21T09:40:51.499Z,40.10
2022-09-21T09:45:52.811Z,41.29
2022-09-21T09:50:47.895Z,41.37
2022-09-21T09:55:46.505Z,41.29
2022-09-21T10:00:41.214Z,39.05
2022-09-21T10:05:38.369Z,39.83
2022-09-21T10:10:35.313Z,39.56
2022-09-21T10:15:45.116Z,41.47
2022-09-21T10:20:38.786Z,44.04
2022-09-21T10:25:34.794Z,44.87
2022-09-21T10:30:38.769Z,45.64
2022-09-21T10:35:32.081Z,45.54
2022-09-21T10:40:28.354Z,45.75
2022-09-21T10:45:24.100Z,45.83
2022-09-21T10:50:28.644Z,45.47
2022-09-21T10:55:24.689Z,45.07
2022-09-21T11:00:35.734Z,42.98
2022-09-21T11:05:34.406Z,42.84
2022-09-21T11:10:35.103Z,42.29
2022-09-21T11:15:41.501Z,40.12
2022-09-21T11:20:43.454Z,38.29
2022-09-21T11:25:45.226Z,38.08
2022-09-21T11:30:53.912Z,34.79
2022-09-21T11:36:03.940Z,31.46
2022-09-21T11:41:15.303Z,31.13
2022-09-21T11:46:21.385Z,31.82
2022-09-21T11:51:38.549Z,33.75
2022-09-21T11:56:45.674Z,35.61
2022-09-21T12:01:58.380Z,37.07
2022-09-21T12:07:08.254Z,34.47
2022-09-21T12:12:10.531Z,34.78
2022-09-21T12:17:10.960Z,35.19
2022-09-21T12:22:10.853Z,35.62
2022-09-21T12:27:06.292Z,36.62
2022-09-21T12:32:06.031Z,38.02
2022-09-21T12:37:05.616Z,38.03
2022-09-21T12:42:06.272Z,36.79
2022-09-21T12:47:10.308Z,35.91
2022-09-21T12:52:07.226Z,34.97
2022-09-21T12:57:38.211Z,35.90
2022-09-21T13:02:35.205Z,38.46
2022-09-21T13:08:04.568Z,38.10
2022-09-21T13:13:02.303Z,38.51
2022-09-21T13:18:06.168Z,38.99
2022-09-21T13:23:02.483Z,39.78
2022-09-21T13:28:19.914Z,39.49
2022-09-21T13:33:32.436Z,39.50
2022-09-21T13:38:26.805Z,39.11
2022-09-21T13:43:26.777Z,40.26
2022-09-21T13:48:27.659Z,39.75
2022-09-21T13:53:23.513Z,40.15
2022-09-21T13:58:22.531Z,41.02
2022-09-21T14:03:31.031Z,42.38
2022-09-21T14:08:33.986Z,44.54
2022-09-21T14:13:36.059Z,45.92
2022-09-21T14:18:41.694Z,48.98
2022-09-21T14:23:35.431Z,46.60
2022-09-21T14:28:36.641Z,45.44
2022-09-21T14:33:35.387Z,46.92
2022-09-21T14:38:32.912Z,42.51
2022-09-21T14:43:29.096Z,41.82
2022-09-21T14:48:30.719Z,40.38
2022-09-21T14:53:43.147Z,41.95
2022-09-21T14:58:52.248Z,40.91
2022-09-21T15:04:09.820Z,41.67
2022-09-21T15:09:40.974Z,42.37
2022-09-21T15:14:38.566Z,43.96
2022-09-21T15:19:38.665Z,45.54
2022-09-21T15:24:34.397Z,47.28
2022-09-21T15:29:36.480Z,48.56
2022-09-21T15:34:30.079Z,49.05
2022-09-21T15:39:28.652Z,48.08
2022-09-21T15:44:26.553Z,48.08
2022-09-21T15:49:25.015Z,47.83
2022-09-21T15:54:30.157Z,49.03
2022-09-21T15:59:24.926Z,50.03
2022-09-21T16:04:49.526Z,49.40
2022-09-21T16:09:45.131Z,49.78
2022-09-21T16:15:04.100Z,50.41
2022-09-21T16:20:19.761Z,51.35
2022-09-21T16:25:34.718Z,51.55
2022-09-21T16:31:22.940Z,50.91
2022-09-21T16:36:42.540Z,51.19
2022-09-21T16:41:41.497Z,51.26
2022-09-21T16:46:36.361Z,51.46
2022-09-21T16:51:29.908Z,51.21
2022-09-21T16:56:23.097Z,50.88
2022-09-21T17:01:18.876Z,51.18
2022-09-21T17:06:17.439Z,51.33
2022-09-21T17:11:10.688Z,51.87
2022-09-21T17:16:04.050Z,55.20
2022-09-21T17:20:57.238Z,61.13
2022-09-21T17:25:52.657Z,66.69
2022-09-21T17:30:46.592Z,69.73
2022-09-21T17:35:41.947Z,71.83
2022-09-21T17:40:36.185Z,73.25
2022-09-21T17:45:38.806Z,73.63
2022-09-21T17:50:32.674Z,74.00
2022-09-21T17:55:26.569Z,74.99
2022-09-21T18:00:27.319Z,74.82
2022-09-21T18:05:25.310Z,75.00
2022-09-21T18:10:19.594Z,73.89
2022-09-21T18:15:20.843Z,72.82
2022-09-21T18:20:35.527Z,73.41
2022-09-21T18:25:33.384Z,73.41
2022-09-21T18:30:27.064Z,73.11
2022-09-21T18:35:45.804Z,73.28
2022-09-21T18:40:44.895Z,74.46
2022-09-21T18:45:43.797Z,74.03
2022-09-21T18:50:45.974Z,73.68
2022-09-21T18:55:41.303Z,72.98
2022-09-21T19:00:35.704Z,73.07
2022-09-21T19:05:29.358Z,74.23
2022-09-21T19:10:32.842Z,73.12
2022-09-21T19:15:56.008Z,72.82
2022-09-21T19:20:57.261Z,71.70
2022-09-21T19:25:53.603Z,71.58
2022-09-21T19:30:53.479Z,70.88
2022-09-21T19:35:48.502Z,69.89
2022-09-21T19:40:44.698Z,69.29
2022-09-21T19:45:49.033Z,70.02
2022-09-21T19:50:48.281Z,70.49
2022-09-21T19:56:00.245Z,71.04
2022-09-21T20:00:55.263Z,71.27
2022-09-21T20:05:56.407Z,71.67
2022-09-21T20:10:57.838Z,72.55
2022-09-21T20:16:00.871Z,71.23
2022-09-21T20:20:57.447Z,70.98
2022-09-21T20:25:54.723Z,71.44
2022-09-21T20:30:48.038Z,71.98
2022-09-21T20:35:43.309Z,72.88
2022-09-21T20:40:38.290Z,72.77
2022-09-21T20:45:32.366Z,72.46
2022-09-21T20:50:30.496Z,71.81
2022-09-21T20:55:24.415Z,71.77
2022-09-21T21:00:19.495Z,72.04
2022-09-21T21:05:12.760Z,72.40
2022-09-21T21:10:06.731Z,72.35
2022-09-21T21:14:59.880Z,71.66
2022-09-21T21:19:54.415Z,70.76
2022-09-21T21:24:48.072Z,69.77
2022-09-21T21:29:41.294Z,69.02
2022-09-21T21:34:34.503Z,69.09
2022-09-21T21:39:28.963Z,68.91
2022-09-21T21:44:22.200Z,68.16
2022-09-21T21:49:15.621Z,67.93
2022-09-21T21:54:08.799Z,67.99
2022-09-21T21:59:03.445Z,67.58
2022-09-21T22:03:58.918Z,67.84
2022-09-21T22:08:53.159Z,67.93
2022-09-21T22:13:47.096Z,69.32
2022-09-21T22:18:42.182Z,70.36
2022-09-21T22:23:35.734Z,71.76
2022-09-21T22:28:28.818Z,72.65
2022-09-21T22:33:21.889Z,72.62
2022-09-21T22:38:16.379Z,72.59
2022-09-21T22:43:09.458Z,73.47
2022-09-21T22:48:03.009Z,73.04
2022-09-21T22:52:56.371Z,73.08
2022-09-21T22:57:50.863Z,73.18
2022-09-21T23:02:44.923Z,73.71
2022-09-21T23:07:38.412Z,73.89
2022-09-21T23:12:31.467Z,74.25
2022-09-21T23:17:25.835Z,74.21
2022-09-21T23:22:19.941Z,74.44
2022-09-21T23:27:12.993Z,74.67
2022-09-21T23:32:06.559Z,74.15
2022-09-21T23:37:01.049Z,74.16
2022-09-21T23:41:54.355Z,74.44
2022-09-21T23:46:47.496Z,74.55
2022-09-21T23:51:40.949Z,74.46
2022-09-21T23:56:35.615Z,75.25
